sensor_id;sensor_type;location;lat;lon;timestamp;pressure;altitude;pressure_sealevel;temperature;humidity
21102;BME280;10709;49.006;12.100;2024-01-11T00:01:34;48608.91;;;-146.00;69.23
21102;BME280;10709;49.006;12.100;2024-01-11T00:04:00;48605.00;;;-146.00;69.39
21102;BME280;10709;49.006;12.100;2024-01-11T00:06:26;48628.50;;;-146.00;68.81
21102;BME280;10709;49.006;12.100;2024-01-11T00:08:54;48608.91;;;-146.00;68.56
21102;BME280;10709;49.006;12.100;2024-01-11T00:11:21;48632.41;;;-146.00;69.07
21102;BME280;10709;49.006;12.100;2024-01-11T00:13:47;48608.91;;;-146.00;68.87
21102;BME280;10709;49.006;12.100;2024-01-11T00:16:14;48610.88;;;-146.00;69.12
21102;BME280;10709;49.006;12.100;2024-01-11T00:18:40;48626.53;;;-146.00;69.03
21102;BME280;10709;49.006;12.100;2024-01-11T00:21:07;48616.75;;;-146.00;69.12
21102;BME280;10709;49.006;12.100;2024-01-11T00:23:34;48610.88;;;-146.00;68.99
21102;BME280;10709;49.006;12.100;2024-01-11T00:26:01;48603.03;;;-146.00;68.89
21102;BME280;10709;49.006;12.100;2024-01-11T00:28:28;48597.16;;;-146.00;68.82
21102;BME280;10709;49.006;12.100;2024-01-11T00:30:55;48628.50;;;-146.00;68.99
21102;BME280;10709;49.006;12.100;2024-01-11T00:33:22;48608.91;;;-146.00;69.27
21102;BME280;10709;49.006;12.100;2024-01-11T00:35:49;48612.84;;;-146.00;68.85
21102;BME280;10709;49.006;12.100;2024-01-11T00:38:16;48612.84;;;-146.00;68.70
21102;BME280;10709;49.006;12.100;2024-01-11T00:40:42;48616.75;;;-146.00;68.90
21102;BME280;10709;49.006;12.100;2024-01-11T00:43:09;48620.66;;;-146.00;69.45
21102;BME280;10709;49.006;12.100;2024-01-11T00:45:36;48616.75;;;-146.00;69.38
21102;BME280;10709;49.006;12.100;2024-01-11T00:48:03;48597.16;;;-146.00;69.00
21102;BME280;10709;49.006;12.100;2024-01-11T00:50:31;48583.44;;;-146.00;69.26
21102;BME280;10709;49.006;12.100;2024-01-11T00:52:58;48601.06;;;-146.00;69.23
21102;BME280;10709;49.006;12.100;2024-01-11T00:55:24;48608.91;;;-146.00;69.17
21102;BME280;10709;49.006;12.100;2024-01-11T00:57:51;48601.06;;;-146.00;69.27
21102;BME280;10709;49.006;12.100;2024-01-11T01:00:18;48634.38;;;-146.00;69.67
21102;BME280;10709;49.006;12.100;2024-01-11T01:02:45;48620.66;;;-146.00;69.91
21102;BME280;10709;49.006;12.100;2024-01-11T01:05:11;48593.25;;;-146.00;69.89
21102;BME280;10709;49.006;12.100;2024-01-11T01:07:38;48608.91;;;-146.00;69.72
21102;BME280;10709;49.006;12.100;2024-01-11T01:10:05;48589.31;;;-146.00;70.28
21102;BME280;10709;49.006;12.100;2024-01-11T01:12:31;48612.84;;;-146.00;70.44
21102;BME280;10709;49.006;12.100;2024-01-11T01:15:00;48616.75;;;-146.00;71.12
21102;BME280;10709;49.006;12.100;2024-01-11T01:17:28;48612.84;;;-146.00;71.40
21102;BME280;10709;49.006;12.100;2024-01-11T01:19:55;48583.44;;;-146.00;70.90
21102;BME280;10709;49.006;12.100;2024-01-11T01:22:22;48605.00;;;-146.00;70.91
21102;BME280;10709;49.006;12.100;2024-01-11T01:24:49;48601.06;;;-146.00;70.39
21102;BME280;10709;49.006;12.100;2024-01-11T01:27:16;48608.91;;;-146.00;70.11
21102;BME280;10709;49.006;12.100;2024-01-11T01:29:43;48628.50;;;-146.00;69.90
21102;BME280;10709;49.006;12.100;2024-01-11T01:32:10;48597.16;;;-146.00;69.82
21102;BME280;10709;49.006;12.100;2024-01-11T01:34:37;48605.00;;;-146.00;69.85
21102;BME280;10709;49.006;12.100;2024-01-11T01:37:03;48616.75;;;-146.00;70.03
21102;BME280;10709;49.006;12.100;2024-01-11T01:39:30;48628.50;;;-146.00;70.83
21102;BME280;10709;49.006;12.100;2024-01-11T01:41:56;48601.06;;;-146.00;70.72
21102;BME280;10709;49.006;12.100;2024-01-11T01:44:23;48632.41;;;-146.00;70.81
21102;BME280;10709;49.006;12.100;2024-01-11T01:46:51;48605.00;;;-146.00;70.90
21102;BME280;10709;49.006;12.100;2024-01-11T01:49:18;48636.34;;;-146.00;71.03
21102;BME280;10709;49.006;12.100;2024-01-11T01:51:49;48608.91;;;-146.00;70.69
21102;BME280;10709;49.006;12.100;2024-01-11T01:54:17;48595.19;;;-146.00;71.03
21102;BME280;10709;49.006;12.100;2024-01-11T01:56:45;48587.38;;;-146.00;70.98
21102;BME280;10709;49.006;12.100;2024-01-11T01:59:12;48601.06;;;-146.00;70.67
21102;BME280;10709;49.006;12.100;2024-01-11T02:01:40;48605.00;;;-146.00;70.83
21102;BME280;10709;49.006;12.100;2024-01-11T02:04:06;48612.84;;;-146.00;70.73
21102;BME280;10709;49.006;12.100;2024-01-11T02:06:34;48593.25;;;-146.00;71.06
21102;BME280;10709;49.006;12.100;2024-01-11T02:09:01;48616.75;;;-146.00;70.74
21102;BME280;10709;49.006;12.100;2024-01-11T02:11:31;48624.59;;;-146.00;70.66
21102;BME280;10709;49.006;12.100;2024-01-11T02:13:58;48591.28;;;-146.00;70.39
21102;BME280;10709;49.006;12.100;2024-01-11T02:16:25;48601.06;;;-146.00;70.65
21102;BME280;10709;49.006;12.100;2024-01-11T02:18:52;48612.84;;;-146.00;70.86
21102;BME280;10709;49.006;12.100;2024-01-11T02:21:20;48610.88;;;-146.00;70.66
21102;BME280;10709;49.006;12.100;2024-01-11T02:24:07;48601.06;;;-146.00;70.87
21102;BME280;10709;49.006;12.100;2024-01-11T02:26:36;48601.06;;;-146.00;71.07
21102;BME280;10709;49.006;12.100;2024-01-11T02:29:02;48605.00;;;-146.00;71.25
21102;BME280;10709;49.006;12.100;2024-01-11T02:31:30;48616.75;;;-146.00;70.96
21102;BME280;10709;49.006;12.100;2024-01-11T02:33:57;48589.31;;;-146.00;70.63
21102;BME280;10709;49.006;12.100;2024-01-11T02:36:25;48593.25;;;-146.00;70.45
21102;BME280;10709;49.006;12.100;2024-01-11T02:38:52;48608.91;;;-146.00;70.30
21102;BME280;10709;49.006;12.100;2024-01-11T02:41:20;48593.25;;;-146.00;70.48
21102;BME280;10709;49.006;12.100;2024-01-11T02:43:47;48612.84;;;-146.00;70.49
21102;BME280;10709;49.006;12.100;2024-01-11T02:46:15;48608.91;;;-146.00;70.59
21102;BME280;10709;49.006;12.100;2024-01-11T02:48:43;48585.41;;;-146.00;70.89
21102;BME280;10709;49.006;12.100;2024-01-11T02:51:09;48608.91;;;-146.00;71.45
21102;BME280;10709;49.006;12.100;2024-01-11T02:53:37;48620.66;;;-146.00;71.29
21102;BME280;10709;49.006;12.100;2024-01-11T02:56:03;48608.91;;;-146.00;71.47
21102;BME280;10709;49.006;12.100;2024-01-11T02:58:30;48589.31;;;-146.00;71.75
21102;BME280;10709;49.006;12.100;2024-01-11T03:00:57;48601.06;;;-146.00;71.52
21102;BME280;10709;49.006;12.100;2024-01-11T03:03:24;48597.16;;;-146.00;71.48
21102;BME280;10709;49.006;12.100;2024-01-11T03:05:50;48591.28;;;-146.00;70.89
21102;BME280;10709;49.006;12.100;2024-01-11T03:08:17;48581.50;;;-146.00;70.65
21102;BME280;10709;49.006;12.100;2024-01-11T03:10:44;48608.91;;;-146.00;70.17
21102;BME280;10709;49.006;12.100;2024-01-11T03:13:10;48605.00;;;-146.00;70.35
21102;BME280;10709;49.006;12.100;2024-01-11T03:15:37;48612.84;;;-146.00;70.19
21102;BME280;10709;49.006;12.100;2024-01-11T03:18:04;48606.94;;;-146.00;69.90
21102;BME280;10709;49.006;12.100;2024-01-11T03:20:31;48606.94;;;-146.00;69.80
21102;BME280;10709;49.006;12.100;2024-01-11T03:22:58;48603.03;;;-146.00;69.58
21102;BME280;10709;49.006;12.100;2024-01-11T03:25:24;48612.84;;;-146.00;69.87
21102;BME280;10709;49.006;12.100;2024-01-11T03:27:51;48577.56;;;-146.00;69.47
21102;BME280;10709;49.006;12.100;2024-01-11T03:30:18;48605.00;;;-146.00;69.94
21102;BME280;10709;49.006;12.100;2024-01-11T03:32:45;48601.06;;;-146.00;69.49
21102;BME280;10709;49.006;12.100;2024-01-11T03:35:13;48612.84;;;-146.00;69.69
21102;BME280;10709;49.006;12.100;2024-01-11T03:37:41;48612.84;;;-146.00;69.40
21102;BME280;10709;49.006;12.100;2024-01-11T03:40:08;48597.16;;;-146.00;69.60
21102;BME280;10709;49.006;12.100;2024-01-11T03:42:34;48605.00;;;-146.00;69.67
21102;BME280;10709;49.006;12.100;2024-01-11T03:45:01;48601.06;;;-146.00;69.43
21102;BME280;10709;49.006;12.100;2024-01-11T03:47:27;48606.94;;;-146.00;70.08
21102;BME280;10709;49.006;12.100;2024-01-11T03:49:54;48608.91;;;-146.00;69.84
21102;BME280;10709;49.006;12.100;2024-01-11T03:52:23;48628.50;;;-146.00;69.62
21102;BME280;10709;49.006;12.100;2024-01-11T03:54:50;48608.91;;;-146.00;69.94
21102;BME280;10709;49.006;12.100;2024-01-11T03:57:17;48612.84;;;-146.00;69.93
21102;BME280;10709;49.006;12.100;2024-01-11T03:59:43;48581.50;;;-146.00;69.89
21102;BME280;10709;49.006;12.100;2024-01-11T04:02:13;48610.88;;;-146.00;69.71
21102;BME280;10709;49.006;12.100;2024-01-11T04:04:41;48601.06;;;-146.00;70.15
21102;BME280;10709;49.006;12.100;2024-01-11T04:07:12;48616.75;;;-146.00;70.31
21102;BME280;10709;49.006;12.100;2024-01-11T04:09:39;48589.31;;;-146.00;70.24
21102;BME280;10709;49.006;12.100;2024-01-11T04:12:06;48595.19;;;-146.00;70.37
21102;BME280;10709;49.006;12.100;2024-01-11T04:14:32;48605.00;;;-146.00;70.31
21102;BME280;10709;49.006;12.100;2024-01-11T04:16:59;48612.84;;;-146.00;70.70
21102;BME280;10709;49.006;12.100;2024-01-11T04:19:26;48597.16;;;-146.00;70.92
21102;BME280;10709;49.006;12.100;2024-01-11T04:21:52;48608.91;;;-146.00;70.87
21102;BME280;10709;49.006;12.100;2024-01-11T04:24:19;48591.28;;;-146.00;70.96
21102;BME280;10709;49.006;12.100;2024-01-11T04:26:46;48597.16;;;-146.00;70.90
21102;BME280;10709;49.006;12.100;2024-01-11T04:29:12;48597.16;;;-146.00;70.54
21102;BME280;10709;49.006;12.100;2024-01-11T04:31:39;48601.06;;;-146.00;70.64
21102;BME280;10709;49.006;12.100;2024-01-11T04:34:06;48577.56;;;-146.00;71.39
21102;BME280;10709;49.006;12.100;2024-01-11T04:36:32;48593.25;;;-146.00;71.70
21102;BME280;10709;49.006;12.100;2024-01-11T04:38:59;48597.16;;;-146.00;72.02
21102;BME280;10709;49.006;12.100;2024-01-11T04:41:25;48589.31;;;-146.00;71.72
21102;BME280;10709;49.006;12.100;2024-01-11T04:43:52;48612.84;;;-146.00;71.95
21102;BME280;10709;49.006;12.100;2024-01-11T04:46:21;48601.06;;;-146.00;72.32
21102;BME280;10709;49.006;12.100;2024-01-11T04:48:48;48593.25;;;-146.00;73.52
21102;BME280;10709;49.006;12.100;2024-01-11T04:51:16;48605.00;;;-146.00;73.64
21102;BME280;10709;49.006;12.100;2024-01-11T04:53:45;48589.31;;;-146.00;73.24
21102;BME280;10709;49.006;12.100;2024-01-11T04:56:16;48585.41;;;-146.00;72.77
21102;BME280;10709;49.006;12.100;2024-01-11T04:58:44;48605.00;;;-146.00;72.88
21102;BME280;10709;49.006;12.100;2024-01-11T05:01:15;48608.91;;;-146.00;72.83
21102;BME280;10709;49.006;12.100;2024-01-11T05:03:44;48585.41;;;-146.00;72.67
21102;BME280;10709;49.006;12.100;2024-01-11T05:06:22;48608.91;;;-146.00;72.45
21102;BME280;10709;49.006;12.100;2024-01-11T05:08:50;48620.66;;;-146.00;72.07
21102;BME280;10709;49.006;12.100;2024-01-11T05:11:22;48589.31;;;-146.00;72.17
21102;BME280;10709;49.006;12.100;2024-01-11T05:13:51;48605.00;;;-146.00;72.54
21102;BME280;10709;49.006;12.100;2024-01-11T05:16:25;48614.78;;;-146.00;72.86
21102;BME280;10709;49.006;12.100;2024-01-11T05:18:53;48597.16;;;-146.00;73.29
21102;BME280;10709;49.006;12.100;2024-01-11T05:21:21;48608.91;;;-146.00;73.51
21102;BME280;10709;49.006;12.100;2024-01-11T05:23:48;48605.00;;;-146.00;74.49
21102;BME280;10709;49.006;12.100;2024-01-11T05:26:16;48593.25;;;-146.00;74.97
21102;BME280;10709;49.006;12.100;2024-01-11T05:28:43;48593.25;;;-146.00;75.74
21102;BME280;10709;49.006;12.100;2024-01-11T05:31:11;48583.44;;;-146.00;74.64
21102;BME280;10709;49.006;12.100;2024-01-11T05:33:40;48603.03;;;-146.00;74.57
21102;BME280;10709;49.006;12.100;2024-01-11T05:36:08;48593.25;;;-146.00;74.08
21102;BME280;10709;49.006;12.100;2024-01-11T05:38:34;48605.00;;;-146.00;74.21
21102;BME280;10709;49.006;12.100;2024-01-11T05:41:01;48597.16;;;-146.00;74.93
21102;BME280;10709;49.006;12.100;2024-01-11T05:43:28;48593.25;;;-146.00;74.69
21102;BME280;10709;49.006;12.100;2024-01-11T05:45:55;48605.00;;;-146.00;76.03
21102;BME280;10709;49.006;12.100;2024-01-11T05:48:25;48587.38;;;-146.00;76.25
21102;BME280;10709;49.006;12.100;2024-01-11T05:50:51;48591.28;;;-146.00;76.04
21102;BME280;10709;49.006;12.100;2024-01-11T05:53:18;48605.00;;;-146.00;75.38
21102;BME280;10709;49.006;12.100;2024-01-11T05:55:47;48608.91;;;-146.00;75.02
21102;BME280;10709;49.006;12.100;2024-01-11T05:58:16;48605.00;;;-146.00;74.09
21102;BME280;10709;49.006;12.100;2024-01-11T06:00:42;48632.41;;;-146.00;73.64
21102;BME280;10709;49.006;12.100;2024-01-11T06:03:11;48583.44;;;-146.00;76.55
21102;BME280;10709;49.006;12.100;2024-01-11T06:05:39;48597.16;;;-146.00;78.36
21102;BME280;10709;49.006;12.100;2024-01-11T06:08:05;48601.06;;;-146.00;78.22
21102;BME280;10709;49.006;12.100;2024-01-11T06:10:33;48595.19;;;-146.00;77.09
21102;BME280;10709;49.006;12.100;2024-01-11T06:13:00;48593.25;;;-146.00;76.90
21102;BME280;10709;49.006;12.100;2024-01-11T06:15:29;48605.00;;;-146.00;76.17
21102;BME280;10709;49.006;12.100;2024-01-11T06:17:55;48628.50;;;-146.00;75.67
21102;BME280;10709;49.006;12.100;2024-01-11T06:20:22;48636.34;;;-146.00;74.86
21102;BME280;10709;49.006;12.100;2024-01-11T06:22:50;48599.13;;;-146.00;74.17
21102;BME280;10709;49.006;12.100;2024-01-11T06:25:16;48593.25;;;-146.00;73.81
21102;BME280;10709;49.006;12.100;2024-01-11T06:27:43;48601.06;;;-146.00;73.42
21102;BME280;10709;49.006;12.100;2024-01-11T06:30:10;48599.13;;;-146.00;73.28
21102;BME280;10709;49.006;12.100;2024-01-11T06:32:37;48612.84;;;-146.00;72.97
21102;BME280;10709;49.006;12.100;2024-01-11T06:35:05;48612.84;;;-146.00;72.85
21102;BME280;10709;49.006;12.100;2024-01-11T06:37:32;48589.31;;;-146.00;72.94
21102;BME280;10709;49.006;12.100;2024-01-11T06:39:59;48614.78;;;-146.00;72.44
21102;BME280;10709;49.006;12.100;2024-01-11T06:42:25;48605.00;;;-146.00;72.55
21102;BME280;10709;49.006;12.100;2024-01-11T06:44:52;48597.16;;;-146.00;72.35
21102;BME280;10709;49.006;12.100;2024-01-11T06:47:19;48608.91;;;-146.00;72.86
21102;BME280;10709;49.006;12.100;2024-01-11T06:49:46;48605.00;;;-146.00;72.78
21102;BME280;10709;49.006;12.100;2024-01-11T06:52:13;48601.06;;;-146.00;72.67
21102;BME280;10709;49.006;12.100;2024-01-11T06:54:39;48612.84;;;-146.00;72.58
21102;BME280;10709;49.006;12.100;2024-01-11T06:57:06;48585.41;;;-146.00;74.72
21102;BME280;10709;49.006;12.100;2024-01-11T06:59:33;48577.56;;;-146.00;76.63
21102;BME280;10709;49.006;12.100;2024-01-11T07:02:00;48595.19;;;-146.00;77.23
21102;BME280;10709;49.006;12.100;2024-01-11T07:04:26;48601.06;;;-146.00;78.79
21102;BME280;10709;49.006;12.100;2024-01-11T07:06:57;48589.31;;;-146.00;80.00
21102;BME280;10709;49.006;12.100;2024-01-11T07:09:25;48601.06;;;-146.00;80.09
21102;BME280;10709;49.006;12.100;2024-01-11T07:11:51;48599.13;;;-146.00;80.52
21102;BME280;10709;49.006;12.100;2024-01-11T07:14:18;48597.16;;;-146.00;79.82
21102;BME280;10709;49.006;12.100;2024-01-11T07:16:45;48605.00;;;-146.00;78.58
21102;BME280;10709;49.006;12.100;2024-01-11T07:19:11;48612.84;;;-146.00;78.18
21102;BME280;10709;49.006;12.100;2024-01-11T07:21:40;48597.16;;;-146.00;77.53
21102;BME280;10709;49.006;12.100;2024-01-11T07:24:07;48608.91;;;-146.00;77.49
21102;BME280;10709;49.006;12.100;2024-01-11T07:26:35;48605.00;;;-146.00;77.72
21102;BME280;10709;49.006;12.100;2024-01-11T07:29:02;48636.34;;;-146.00;78.05
21102;BME280;10709;49.006;12.100;2024-01-11T07:31:29;48577.56;;;-146.00;78.49
21102;BME280;10709;49.006;12.100;2024-01-11T07:33:55;48605.00;;;-146.00;78.75
21102;BME280;10709;49.006;12.100;2024-01-11T07:36:23;48616.75;;;-146.00;78.38
21102;BME280;10709;49.006;12.100;2024-01-11T07:38:50;48616.75;;;-146.00;77.97
21102;BME280;10709;49.006;12.100;2024-01-11T07:41:17;48597.16;;;-146.00;77.10
21102;BME280;10709;49.006;12.100;2024-01-11T07:43:43;48624.59;;;-146.00;76.07
21102;BME280;10709;49.006;12.100;2024-01-11T07:46:20;48616.75;;;-146.00;75.50
21102;BME280;10709;49.006;12.100;2024-01-11T07:49:01;48608.91;;;-146.00;75.43
21102;BME280;10709;49.006;12.100;2024-01-11T07:51:28;48593.25;;;-146.00;75.61
21102;BME280;10709;49.006;12.100;2024-01-11T07:53:54;48573.66;;;-146.00;74.95
21102;BME280;10709;49.006;12.100;2024-01-11T07:56:21;48593.25;;;-146.00;74.62
21102;BME280;10709;49.006;12.100;2024-01-11T07:58:48;48591.28;;;-146.00;74.43
21102;BME280;10709;49.006;12.100;2024-01-11T08:01:16;48595.19;;;-146.00;74.02
21102;BME280;10709;49.006;12.100;2024-01-11T08:03:42;48605.00;;;-146.00;73.55
21102;BME280;10709;49.006;12.100;2024-01-11T08:06:11;48603.03;;;-146.00;74.03
21102;BME280;10709;49.006;12.100;2024-01-11T08:08:40;48612.84;;;-146.00;74.32
21102;BME280;10709;49.006;12.100;2024-01-11T08:11:07;48605.00;;;-146.00;74.19
21102;BME280;10709;49.006;12.100;2024-01-11T08:13:34;48605.00;;;-146.00;74.10
21102;BME280;10709;49.006;12.100;2024-01-11T08:16:01;48605.00;;;-146.00;74.06
21102;BME280;10709;49.006;12.100;2024-01-11T08:18:30;48585.41;;;-146.00;73.82
21102;BME280;10709;49.006;12.100;2024-01-11T08:20:59;48589.31;;;-146.00;73.68
21102;BME280;10709;49.006;12.100;2024-01-11T08:23:25;48595.19;;;-146.00;73.88
21102;BME280;10709;49.006;12.100;2024-01-11T08:25:53;48593.25;;;-146.00;73.99
21102;BME280;10709;49.006;12.100;2024-01-11T08:28:19;48591.28;;;-146.00;75.69
21102;BME280;10709;49.006;12.100;2024-01-11T08:30:47;48605.00;;;-146.00;77.16
21102;BME280;10709;49.006;12.100;2024-01-11T08:33:13;48616.75;;;-146.00;78.11
21102;BME280;10709;49.006;12.100;2024-01-11T08:35:40;48585.41;;;-146.00;77.86
21102;BME280;10709;49.006;12.100;2024-01-11T08:38:08;48591.28;;;-146.00;78.27
21102;BME280;10709;49.006;12.100;2024-01-11T08:40:35;48601.06;;;-146.00;77.60
21102;BME280;10709;49.006;12.100;2024-01-11T08:43:02;48608.91;;;-146.00;77.71
21102;BME280;10709;49.006;12.100;2024-01-11T08:45:30;48591.28;;;-146.00;77.74
21102;BME280;10709;49.006;12.100;2024-01-11T08:47:57;48612.84;;;-146.00;77.07
21102;BME280;10709;49.006;12.100;2024-01-11T08:50:24;48589.31;;;-146.00;76.47
21102;BME280;10709;49.006;12.100;2024-01-11T08:52:54;48616.75;;;-146.00;76.08
21102;BME280;10709;49.006;12.100;2024-01-11T08:55:22;48597.16;;;-146.00;75.82
21102;BME280;10709;49.006;12.100;2024-01-11T08:57:49;48597.16;;;-146.00;75.50
21102;BME280;10709;49.006;12.100;2024-01-11T09:00:15;48612.84;;;-146.00;75.15
21102;BME280;10709;49.006;12.100;2024-01-11T09:02:45;48605.00;;;-146.00;75.39
21102;BME280;10709;49.006;12.100;2024-01-11T09:05:16;48605.00;;;-146.00;75.86
21102;BME280;10709;49.006;12.100;2024-01-11T09:07:43;48601.06;;;-146.00;75.54
21102;BME280;10709;49.006;12.100;2024-01-11T09:10:10;48583.44;;;-146.00;75.35
21102;BME280;10709;49.006;12.100;2024-01-11T09:12:38;48614.78;;;-146.00;75.65
21102;BME280;10709;49.006;12.100;2024-01-11T09:15:05;48640.25;;;-146.00;75.77
21102;BME280;10709;49.006;12.100;2024-01-11T09:17:32;48591.28;;;-146.00;75.30
21102;BME280;10709;49.006;12.100;2024-01-11T09:19:59;48612.84;;;-146.00;75.10
21102;BME280;10709;49.006;12.100;2024-01-11T09:22:26;48620.66;;;-146.00;75.04
21102;BME280;10709;49.006;12.100;2024-01-11T09:24:54;48620.66;;;-146.00;75.16
21102;BME280;10709;49.006;12.100;2024-01-11T09:27:21;48616.75;;;-146.00;75.01
21102;BME280;10709;49.006;12.100;2024-01-11T09:29:48;48608.91;;;-146.00;74.89
21102;BME280;10709;49.006;12.100;2024-01-11T09:32:20;48610.88;;;-146.00;75.29
21102;BME280;10709;49.006;12.100;2024-01-11T09:34:47;48630.47;;;-146.00;75.37
21102;BME280;10709;49.006;12.100;2024-01-11T09:37:14;48636.34;;;-146.00;75.03
21102;BME280;10709;49.006;12.100;2024-01-11T09:39:41;48593.25;;;-146.00;74.92
21102;BME280;10709;49.006;12.100;2024-01-11T09:42:09;48620.66;;;-146.00;75.03
21102;BME280;10709;49.006;12.100;2024-01-11T09:44:37;48634.38;;;-146.00;74.95
21102;BME280;10709;49.006;12.100;2024-01-11T09:47:08;48612.84;;;-146.00;74.60
21102;BME280;10709;49.006;12.100;2024-01-11T09:49:43;48612.84;;;-146.00;74.68
21102;BME280;10709;49.006;12.100;2024-01-11T09:52:11;48628.50;;;-146.00;74.35
21102;BME280;10709;49.006;12.100;2024-01-11T09:54:39;48601.06;;;-146.00;73.53
21102;BME280;10709;49.006;12.100;2024-01-11T09:57:10;48589.31;;;-146.00;73.71
21102;BME280;10709;49.006;12.100;2024-01-11T09:59:38;48601.06;;;-146.00;74.14
21102;BME280;10709;49.006;12.100;2024-01-11T10:02:09;48612.84;;;-146.00;74.25
21102;BME280;10709;49.006;12.100;2024-01-11T10:04:36;48628.50;;;-146.00;73.76
21102;BME280;10709;49.006;12.100;2024-01-11T10:07:05;48579.53;;;-146.00;73.62
21102;BME280;10709;49.006;12.100;2024-01-11T10:09:32;48591.28;;;-146.00;73.34
21102;BME280;10709;49.006;12.100;2024-01-11T10:11:59;48636.34;;;-146.00;73.20
21102;BME280;10709;49.006;12.100;2024-01-11T10:14:26;48606.94;;;-146.00;73.07
21102;BME280;10709;49.006;12.100;2024-01-11T10:16:54;48601.06;;;-146.00;73.12
21102;BME280;10709;49.006;12.100;2024-01-11T10:19:20;48601.06;;;-146.00;73.18
21102;BME280;10709;49.006;12.100;2024-01-11T10:21:48;48605.00;;;-146.00;73.21
21102;BME280;10709;49.006;12.100;2024-01-11T10:24:18;48636.34;;;-146.00;73.16
21102;BME280;10709;49.006;12.100;2024-01-11T10:26:46;48597.16;;;-146.00;73.27
21102;BME280;10709;49.006;12.100;2024-01-11T10:29:13;48601.06;;;-146.00;73.42
21102;BME280;10709;49.006;12.100;2024-01-11T10:31:40;48608.91;;;-146.00;73.31
21102;BME280;10709;49.006;12.100;2024-01-11T10:34:06;48618.72;;;-146.00;73.27
21102;BME280;10709;49.006;12.100;2024-01-11T10:36:33;48634.38;;;-146.00;73.57
21102;BME280;10709;49.006;12.100;2024-01-11T10:39:02;48583.44;;;-146.00;73.48
21102;BME280;10709;49.006;12.100;2024-01-11T10:41:39;48636.34;;;-146.00;73.27
21102;BME280;10709;49.006;12.100;2024-01-11T10:44:18;48616.75;;;-146.00;73.13
21102;BME280;10709;49.006;12.100;2024-01-11T10:46:48;48608.91;;;-146.00;73.14
21102;BME280;10709;49.006;12.100;2024-01-11T10:49:17;48642.22;;;-146.00;72.76
21102;BME280;10709;49.006;12.100;2024-01-11T10:51:53;48593.25;;;-146.00;73.46
21102;BME280;10709;49.006;12.100;2024-01-11T10:54:24;48632.41;;;-146.00;73.36
21102;BME280;10709;49.006;12.100;2024-01-11T10:56:53;48610.88;;;-146.00;73.48
21102;BME280;10709;49.006;12.100;2024-01-11T10:59:21;48612.84;;;-146.00;73.00
21102;BME280;10709;49.006;12.100;2024-01-11T11:01:53;48593.25;;;-146.00;72.74
21102;BME280;10709;49.006;12.100;2024-01-11T11:04:22;48599.13;;;-146.00;72.83
21102;BME280;10709;49.006;12.100;2024-01-11T11:06:51;48603.03;;;-146.00;72.44
21102;BME280;10709;49.006;12.100;2024-01-11T11:09:21;48601.06;;;-146.00;72.56
21102;BME280;10709;49.006;12.100;2024-01-11T11:11:49;48630.47;;;-146.00;72.41
21102;BME280;10709;49.006;12.100;2024-01-11T11:14:16;48612.84;;;-146.00;72.37
21102;BME280;10709;49.006;12.100;2024-01-11T11:16:44;48642.22;;;-146.00;72.65
21102;BME280;10709;49.006;12.100;2024-01-11T11:19:11;48624.59;;;-146.00;72.59
21102;BME280;10709;49.006;12.100;2024-01-11T11:21:44;48624.59;;;-146.00;72.22
21102;BME280;10709;49.006;12.100;2024-01-11T11:24:12;48620.66;;;-146.00;72.52
21102;BME280;10709;49.006;12.100;2024-01-11T11:26:39;48626.53;;;-146.00;71.88
21102;BME280;10709;49.006;12.100;2024-01-11T11:29:05;48606.94;;;-146.00;71.86
21102;BME280;10709;49.006;12.100;2024-01-11T11:31:43;48616.75;;;-146.00;71.81
21102;BME280;10709;49.006;12.100;2024-01-11T11:34:12;48608.91;;;-146.00;71.65
21102;BME280;10709;49.006;12.100;2024-01-11T11:36:40;48601.06;;;-146.00;71.51
21102;BME280;10709;49.006;12.100;2024-01-11T11:39:10;48608.91;;;-146.00;71.33
21102;BME280;10709;49.006;12.100;2024-01-11T11:41:41;48603.03;;;-146.00;71.33
21102;BME280;10709;49.006;12.100;2024-01-11T11:44:11;48628.50;;;-146.00;71.36
21102;BME280;10709;49.006;12.100;2024-01-11T11:46:39;48620.66;;;-146.00;71.06
21102;BME280;10709;49.006;12.100;2024-01-11T11:49:05;48616.75;;;-146.00;71.21
21102;BME280;10709;49.006;12.100;2024-01-11T11:51:32;48632.41;;;-146.00;70.68
21102;BME280;10709;49.006;12.100;2024-01-11T11:53:59;48636.34;;;-146.00;70.94
21102;BME280;10709;49.006;12.100;2024-01-11T11:56:26;48632.41;;;-146.00;70.83
21102;BME280;10709;49.006;12.100;2024-01-11T11:58:53;48610.88;;;-146.00;70.79
21102;BME280;10709;49.006;12.100;2024-01-11T12:01:22;48620.66;;;-146.00;70.71
21102;BME280;10709;49.006;12.100;2024-01-11T12:03:48;48646.13;;;-146.00;70.46
21102;BME280;10709;49.006;12.100;2024-01-11T12:06:18;48653.97;;;-146.00;70.03
21102;BME280;10709;49.006;12.100;2024-01-11T12:08:47;48597.16;;;-146.00;69.90
21102;BME280;10709;49.006;12.100;2024-01-11T12:11:17;48610.88;;;-146.00;69.93
21102;BME280;10709;49.006;12.100;2024-01-11T12:13:44;48612.84;;;-146.00;69.81
21102;BME280;10709;49.006;12.100;2024-01-11T12:16:12;48626.53;;;-146.00;69.99
21102;BME280;10709;49.006;12.100;2024-01-11T12:18:40;48646.13;;;-146.00;70.23
21102;BME280;10709;49.006;12.100;2024-01-11T12:21:08;48605.00;;;-146.00;69.68
21102;BME280;10709;49.006;12.100;2024-01-11T12:23:36;48638.28;;;-146.00;69.82
21102;BME280;10709;49.006;12.100;2024-01-11T12:26:03;48636.34;;;-146.00;69.54
21102;BME280;10709;49.006;12.100;2024-01-11T12:28:34;48612.84;;;-146.00;69.69
21102;BME280;10709;49.006;12.100;2024-01-11T12:31:01;48597.16;;;-146.00;69.97
21102;BME280;10709;49.006;12.100;2024-01-11T12:33:27;48612.84;;;-146.00;69.73